sensor_id;sensor_type;location;lat;lon;timestamp;pressure;altitude;pressure_sealevel;temperature
19061;BMP280;9663;48.996;8.334;2023-11-18T00:00:20;101204.06;;;14.80
19061;BMP280;9663;48.996;8.334;2023-11-18T00:02:46;101199.78;;;14.79
19061;BMP280;9663;48.996;8.334;2023-11-18T00:05:12;101204.91;;;14.79
19061;BMP280;9663;48.996;8.334;2023-11-18T00:07:39;101194.72;;;14.76
19061;BMP280;9663;48.996;8.334;2023-11-18T00:10:06;101203.22;;;14.76
19061;BMP280;9663;48.996;8.334;2023-11-18T00:12:32;101215.16;;;14.76
19061;BMP280;9663;48.996;8.334;2023-11-18T00:15:04;101210.06;;;14.74
19061;BMP280;9663;48.996;8.334;2023-11-18T00:17:33;101200.69;;;14.75
19061;BMP280;9663;48.996;8.334;2023-11-18T00:19:58;101215.19;;;14.73
19061;BMP280;9663;48.996;8.334;2023-11-18T00:22:24;101215.16;;;14.74
19061;BMP280;9663;48.996;8.334;2023-11-18T00:24:50;101210.06;;;14.76
19061;BMP280;9663;48.996;8.334;2023-11-18T00:27:17;101204.06;;;14.77
19061;BMP280;9663;48.996;8.334;2023-11-18T00:29:43;101195.56;;;14.75
19061;BMP280;9663;48.996;8.334;2023-11-18T00:32:09;101197.28;;;14.76
19061;BMP280;9663;48.996;8.334;2023-11-18T00:34:35;101199.81;;;14.77
19061;BMP280;9663;48.996;8.334;2023-11-18T00:37:01;101193.00;;;14.78
19061;BMP280;9663;48.996;8.334;2023-11-18T00:39:27;101198.97;;;14.78
19061;BMP280;9663;48.996;8.334;2023-11-18T00:41:53;101189.56;;;14.80
19061;BMP280;9663;48.996;8.334;2023-11-18T00:44:19;101192.09;;;14.83
19061;BMP280;9663;48.996;8.334;2023-11-18T00:46:44;101185.28;;;14.85
19061;BMP280;9663;48.996;8.334;2023-11-18T00:49:10;101181.00;;;14.87
19061;BMP280;9663;48.996;8.334;2023-11-18T00:51:39;101176.75;;;14.89
19061;BMP280;9663;48.996;8.334;2023-11-18T00:54:07;101176.75;;;14.91
19061;BMP280;9663;48.996;8.334;2023-11-18T00:56:33;101180.16;;;14.90
19061;BMP280;9663;48.996;8.334;2023-11-18T00:58:59;101175.03;;;14.88
19061;BMP280;9663;48.996;8.334;2023-11-18T01:01:27;101192.91;;;14.90
19061;BMP280;9663;48.996;8.334;2023-11-18T01:03:53;101198.88;;;14.90
19061;BMP280;9663;48.996;8.334;2023-11-18T01:06:19;101206.53;;;14.90
19061;BMP280;9663;48.996;8.334;2023-11-18T01:08:46;101205.69;;;14.91
19061;BMP280;9663;48.996;8.334;2023-11-18T01:11:19;101215.06;;;14.89
19061;BMP280;9663;48.996;8.334;2023-11-18T01:13:51;101214.25;;;14.86
19061;BMP280;9663;48.996;8.334;2023-11-18T01:16:18;101216.81;;;14.86
19061;BMP280;9663;48.996;8.334;2023-11-18T01:18:45;101226.13;;;14.88
19061;BMP280;9663;48.996;8.334;2023-11-18T01:21:11;101235.50;;;14.91
19061;BMP280;9663;48.996;8.334;2023-11-18T01:23:38;101232.91;;;14.93
19061;BMP280;9663;48.996;8.334;2023-11-18T01:26:07;101224.38;;;14.94
19061;BMP280;9663;48.996;8.334;2023-11-18T01:28:36;101229.47;;;14.97
19061;BMP280;9663;48.996;8.334;2023-11-18T01:31:06;101228.59;;;14.98
19061;BMP280;9663;48.996;8.334;2023-11-18T01:33:39;101225.19;;;14.99
19061;BMP280;9663;48.996;8.334;2023-11-18T01:36:09;101218.38;;;14.98
19061;BMP280;9663;48.996;8.334;2023-11-18T01:38:38;101210.72;;;14.98
19061;BMP280;9663;48.996;8.334;2023-11-18T01:41:06;101209.03;;;14.99
19061;BMP280;9663;48.996;8.334;2023-11-18T01:43:32;101213.25;;;15.01
19061;BMP280;9663;48.996;8.334;2023-11-18T01:46:01;101209.84;;;15.04
19061;BMP280;9663;48.996;8.334;2023-11-18T01:48:30;101203.03;;;15.04
19061;BMP280;9663;48.996;8.334;2023-11-18T01:50:59;101205.63;;;14.98
19061;BMP280;9663;48.996;8.334;2023-11-18T01:53:25;101206.50;;;14.93
19061;BMP280;9663;48.996;8.334;2023-11-18T01:55:52;101216.75;;;14.89
19061;BMP280;9663;48.996;8.334;2023-11-18T01:58:19;101212.53;;;14.85
19061;BMP280;9663;48.996;8.334;2023-11-18T02:00:46;101223.66;;;14.79
19061;BMP280;9663;48.996;8.334;2023-11-18T02:03:13;101221.94;;;14.77
19061;BMP280;9663;48.996;8.334;2023-11-18T02:05:38;101229.59;;;14.78
19061;BMP280;9663;48.996;8.334;2023-11-18T02:08:05;101217.66;;;14.79
19061;BMP280;9663;48.996;8.334;2023-11-18T02:10:53;101219.38;;;14.80
19061;BMP280;9663;48.996;8.334;2023-11-18T02:13:31;101218.53;;;14.79
19061;BMP280;9663;48.996;8.334;2023-11-18T02:15:59;101221.97;;;14.74
19061;BMP280;9663;48.996;8.334;2023-11-18T02:18:29;101225.41;;;14.70
19061;BMP280;9663;48.996;8.334;2023-11-18T02:20:55;101226.31;;;14.64
19061;BMP280;9663;48.996;8.334;2023-11-18T02:23:27;101222.91;;;14.59
19061;BMP280;9663;48.996;8.334;2023-11-18T02:25:54;101228.03;;;14.58
19061;BMP280;9663;48.996;8.334;2023-11-18T02:28:23;101233.16;;;14.56
19061;BMP280;9663;48.996;8.334;2023-11-18T02:30:56;101226.34;;;14.54
19061;BMP280;9663;48.996;8.334;2023-11-18T02:34:12;101229.84;;;14.38
19061;BMP280;9663;48.996;8.334;2023-11-18T02:36:46;101237.44;;;14.50
19061;BMP280;9663;48.996;8.334;2023-11-18T02:39:22;101224.66;;;14.50
19061;BMP280;9663;48.996;8.334;2023-11-18T02:41:52;101228.06;;;14.52
19061;BMP280;9663;48.996;8.334;2023-11-18T02:44:23;101220.38;;;14.55
19061;BMP280;9663;48.996;8.334;2023-11-18T02:46:50;101211.84;;;14.59
19061;BMP280;9663;48.996;8.334;2023-11-18T02:49:16;101215.22;;;14.64
19061;BMP280;9663;48.996;8.334;2023-11-18T02:51:43;101219.47;;;14.69
19061;BMP280;9663;48.996;8.334;2023-11-18T02:54:11;101221.97;;;14.72
19061;BMP280;9663;48.996;8.334;2023-11-18T02:56:37;101212.63;;;14.73
19061;BMP280;9663;48.996;8.334;2023-11-18T02:59:03;101210.91;;;14.75
19061;BMP280;9663;48.996;8.334;2023-11-18T03:01:33;101200.66;;;14.78
19061;BMP280;9663;48.996;8.334;2023-11-18T03:04:04;101204.06;;;14.78
19061;BMP280;9663;48.996;8.334;2023-11-18T03:06:31;101204.06;;;14.80
19061;BMP280;9663;48.996;8.334;2023-11-18T03:08:58;101202.31;;;14.85
19061;BMP280;9663;48.996;8.334;2023-11-18T03:11:24;101191.25;;;14.86
19061;BMP280;9663;48.996;8.334;2023-11-18T03:13:49;101192.94;;;14.87
19061;BMP280;9663;48.996;8.334;2023-11-18T03:16:15;101196.38;;;14.86
19061;BMP280;9663;48.996;8.334;2023-11-18T03:18:42;101193.81;;;14.84
19061;BMP280;9663;48.996;8.334;2023-11-18T03:21:12;101204.03;;;14.86
19061;BMP280;9663;48.996;8.334;2023-11-18T03:23:39;101209.97;;;14.89
19061;BMP280;9663;48.996;8.334;2023-11-18T03:26:07;101207.41;;;14.89
19061;BMP280;9663;48.996;8.334;2023-11-18T03:28:33;101206.53;;;14.90
19061;BMP280;9663;48.996;8.334;2023-11-18T03:30:59;101204.84;;;14.92
19061;BMP280;9663;48.996;8.334;2023-11-18T03:33:25;101218.44;;;14.94
19061;BMP280;9663;48.996;8.334;2023-11-18T03:35:50;101214.16;;;14.94
19061;BMP280;9663;48.996;8.334;2023-11-18T03:38:16;101216.72;;;14.94
19061;BMP280;9663;48.996;8.334;2023-11-18T03:40:43;101216.72;;;14.94
19061;BMP280;9663;48.996;8.334;2023-11-18T03:43:11;101217.56;;;14.93
19061;BMP280;9663;48.996;8.334;2023-11-18T03:45:39;101210.78;;;14.94
19061;BMP280;9663;48.996;8.334;2023-11-18T03:48:06;101215.88;;;14.97
19061;BMP280;9663;48.996;8.334;2023-11-18T03:50:33;101210.72;;;15.00
19061;BMP280;9663;48.996;8.334;2023-11-18T03:52:58;101209.03;;;14.99
19061;BMP280;9663;48.996;8.334;2023-11-18T03:55:25;101210.75;;;14.97
19061;BMP280;9663;48.996;8.334;2023-11-18T03:57:52;101215.91;;;14.93
19061;BMP280;9663;48.996;8.334;2023-11-18T04:00:18;101217.63;;;14.91
19061;BMP280;9663;48.996;8.334;2023-11-18T04:02:48;101215.91;;;14.88
19061;BMP280;9663;48.996;8.334;2023-11-18T04:05:14;101211.66;;;14.89
19061;BMP280;9663;48.996;8.334;2023-11-18T04:07:40;101203.16;;;14.84
19061;BMP280;9663;48.996;8.334;2023-11-18T04:10:09;101213.44;;;14.76
19061;BMP280;9663;48.996;8.334;2023-11-18T04:12:36;101211.81;;;14.69
19061;BMP280;9663;48.996;8.334;2023-11-18T04:15:04;101217.75;;;14.64
19061;BMP280;9663;48.996;8.334;2023-11-18T04:17:31;101226.31;;;14.58
19061;BMP280;9663;48.996;8.334;2023-11-18T04:19:57;101217.00;;;14.52
19061;BMP280;9663;48.996;8.334;2023-11-18T04:22:23;101219.56;;;14.47
19061;BMP280;9663;48.996;8.334;2023-11-18T04:24:49;101212.75;;;14.48
19061;BMP280;9663;48.996;8.334;2023-11-18T04:27:15;101214.47;;;14.47
19061;BMP280;9663;48.996;8.334;2023-11-18T04:29:41;101211.06;;;14.48
19061;BMP280;9663;48.996;8.334;2023-11-18T04:32:08;101208.53;;;14.47
19061;BMP280;9663;48.996;8.334;2023-11-18T04:34:39;101212.78;;;14.45
19061;BMP280;9663;48.996;8.334;2023-11-18T04:37:05;101206.81;;;14.43
19061;BMP280;9663;48.996;8.334;2023-11-18T04:39:34;101213.63;;;14.42
19061;BMP280;9663;48.996;8.334;2023-11-18T04:42:00;101223.00;;;14.42
19061;BMP280;9663;48.996;8.334;2023-11-18T04:44:27;101217.91;;;14.40
19061;BMP280;9663;48.996;8.334;2023-11-18T04:46:54;101220.47;;;14.37
19061;BMP280;9663;48.996;8.334;2023-11-18T04:49:20;101215.38;;;14.33
19061;BMP280;9663;48.996;8.334;2023-11-18T04:51:46;101217.09;;;14.26
19061;BMP280;9663;48.996;8.334;2023-11-18T04:54:12;101200.13;;;14.22
19061;BMP280;9663;48.996;8.334;2023-11-18T04:56:38;101208.63;;;14.21
19061;BMP280;9663;48.996;8.334;2023-11-18T04:59:04;101214.59;;;14.20
19061;BMP280;9663;48.996;8.334;2023-11-18T05:01:31;101201.84;;;14.20
19061;BMP280;9663;48.996;8.334;2023-11-18T05:03:57;101207.78;;;14.19
19061;BMP280;9663;48.996;8.334;2023-11-18T05:06:23;101205.25;;;14.16
19061;BMP280;9663;48.996;8.334;2023-11-18T05:08:49;101204.41;;;14.16
19061;BMP280;9663;48.996;8.334;2023-11-18T05:11:15;101206.94;;;14.14
19061;BMP280;9663;48.996;8.334;2023-11-18T05:13:41;101203.56;;;14.15
19061;BMP280;9663;48.996;8.334;2023-11-18T05:16:07;101208.66;;;14.14
19061;BMP280;9663;48.996;8.334;2023-11-18T05:18:33;101204.41;;;14.13
19061;BMP280;9663;48.996;8.334;2023-11-18T05:21:02;101204.41;;;14.14
19061;BMP280;9663;48.996;8.334;2023-11-18T05:23:30;101201.00;;;14.14
19061;BMP280;9663;48.996;8.334;2023-11-18T05:25:57;101211.22;;;14.15
19061;BMP280;9663;48.996;8.334;2023-11-18T05:28:24;101207.78;;;14.15
19061;BMP280;9663;48.996;8.334;2023-11-18T05:30:50;101209.50;;;14.13
19061;BMP280;9663;48.996;8.334;2023-11-18T05:33:17;101212.06;;;14.11
19061;BMP280;9663;48.996;8.334;2023-11-18T05:35:44;101215.50;;;14.10
19061;BMP280;9663;48.996;8.334;2023-11-18T05:38:19;101204.44;;;14.07
19061;BMP280;9663;48.996;8.334;2023-11-18T05:40:47;101204.41;;;14.03
19061;BMP280;9663;48.996;8.334;2023-11-18T05:43:31;101206.97;;;14.00
19061;BMP280;9663;48.996;8.334;2023-11-18T05:46:06;101211.25;;;13.96
19061;BMP280;9663;48.996;8.334;2023-11-18T05:49:02;101207.84;;;13.96
19061;BMP280;9663;48.996;8.334;2023-11-18T05:51:32;101202.75;;;13.96
19061;BMP280;9663;48.996;8.334;2023-11-18T05:53:58;101201.03;;;13.96
19061;BMP280;9663;48.996;8.334;2023-11-18T05:56:24;101207.84;;;13.96
19061;BMP280;9663;48.996;8.334;2023-11-18T05:58:52;101201.03;;;13.93
19061;BMP280;9663;48.996;8.334;2023-11-18T06:01:20;101209.56;;;13.91
19061;BMP280;9663;48.996;8.334;2023-11-18T06:03:46;101202.75;;;13.90
19061;BMP280;9663;48.996;8.334;2023-11-18T06:06:14;101190.00;;;13.87
19061;BMP280;9663;48.996;8.334;2023-11-18T06:08:42;101193.44;;;13.86
19061;BMP280;9663;48.996;8.334;2023-11-18T06:11:12;101184.94;;;13.82
19061;BMP280;9663;48.996;8.334;2023-11-18T06:13:51;101190.88;;;13.80
19061;BMP280;9663;48.996;8.334;2023-11-18T06:16:19;101196.00;;;13.75
19061;BMP280;9663;48.996;8.334;2023-11-18T06:18:55;101207.06;;;13.73
19061;BMP280;9663;48.996;8.334;2023-11-18T06:21:24;101218.09;;;13.72
19061;BMP280;9663;48.996;8.334;2023-11-18T06:23:51;101213.00;;;13.72
19061;BMP280;9663;48.996;8.334;2023-11-18T06:26:17;101211.31;;;13.69
19061;BMP280;9663;48.996;8.334;2023-11-18T06:28:46;101213.88;;;13.66
19061;BMP280;9663;48.996;8.334;2023-11-18T06:31:12;101205.38;;;13.65
19061;BMP280;9663;48.996;8.334;2023-11-18T06:33:40;101198.56;;;13.65
19061;BMP280;9663;48.996;8.334;2023-11-18T06:36:16;101201.97;;;13.68
19061;BMP280;9663;48.996;8.334;2023-11-18T06:38:50;101202.81;;;13.70
19061;BMP280;9663;48.996;8.334;2023-11-18T06:41:17;101198.56;;;13.69
19061;BMP280;9663;48.996;8.334;2023-11-18T06:43:45;101198.56;;;13.71
19061;BMP280;9663;48.996;8.334;2023-11-18T06:46:21;101197.69;;;13.73
19061;BMP280;9663;48.996;8.334;2023-11-18T06:48:52;101186.66;;;13.74
19061;BMP280;9663;48.996;8.334;2023-11-18T06:51:25;101181.56;;;13.76
19061;BMP280;9663;48.996;8.334;2023-11-18T06:53:56;101190.88;;;13.77
19061;BMP280;9663;48.996;8.334;2023-11-18T06:56:27;101196.00;;;13.77
19061;BMP280;9663;48.996;8.334;2023-11-18T06:58:53;101199.41;;;13.73
19061;BMP280;9663;48.996;8.334;2023-11-18T07:01:19;101196.03;;;13.71
19061;BMP280;9663;48.996;8.334;2023-11-18T07:03:48;101194.31;;;13.70
19061;BMP280;9663;48.996;8.334;2023-11-18T07:06:18;101201.97;;;13.73
19061;BMP280;9663;48.996;8.334;2023-11-18T07:08:53;101208.75;;;13.74
19061;BMP280;9663;48.996;8.334;2023-11-18T07:11:19;101197.69;;;13.76
19061;BMP280;9663;48.996;8.334;2023-11-18T07:13:49;101204.47;;;13.80
19061;BMP280;9663;48.996;8.334;2023-11-18T07:16:15;101210.44;;;13.82
19061;BMP280;9663;48.996;8.334;2023-11-18T07:18:41;101207.03;;;13.83
19061;BMP280;9663;48.996;8.334;2023-11-18T07:21:10;101205.31;;;13.84
19061;BMP280;9663;48.996;8.334;2023-11-18T07:23:36;101199.38;;;13.86
19061;BMP280;9663;48.996;8.334;2023-11-18T07:26:02;101210.41;;;13.90
19061;BMP280;9663;48.996;8.334;2023-11-18T07:28:31;101212.09;;;13.94
19061;BMP280;9663;48.996;8.334;2023-11-18T07:30:57;101219.72;;;13.97
19061;BMP280;9663;48.996;8.334;2023-11-18T07:33:23;101218.03;;;14.02
19061;BMP280;9663;48.996;8.334;2023-11-18T07:35:49;101209.56;;;14.07
19061;BMP280;9663;48.996;8.334;2023-11-18T07:38:16;101189.97;;;14.10
19061;BMP280;9663;48.996;8.334;2023-11-18T07:40:42;101176.34;;;14.17
19061;BMP280;9663;48.996;8.334;2023-11-18T07:43:15;101189.03;;;14.25
19061;BMP280;9663;48.996;8.334;2023-11-18T07:45:41;101194.13;;;14.29
19061;BMP280;9663;48.996;8.334;2023-11-18T07:48:11;101197.50;;;14.36
19061;BMP280;9663;48.996;8.334;2023-11-18T07:50:38;101202.59;;;14.37
19061;BMP280;9663;48.996;8.334;2023-11-18T07:53:07;101201.75;;;14.40
19061;BMP280;9663;48.996;8.334;2023-11-18T07:55:33;101200.88;;;14.42
19061;BMP280;9663;48.996;8.334;2023-11-18T07:58:10;101199.16;;;14.46
19061;BMP280;9663;48.996;8.334;2023-11-18T08:00:40;101205.09;;;14.49
19061;BMP280;9663;48.996;8.334;2023-11-18T08:03:08;101203.41;;;14.50
19061;BMP280;9663;48.996;8.334;2023-11-18T08:05:41;101202.50;;;14.55
19061;BMP280;9663;48.996;8.334;2023-11-18T08:08:12;101214.38;;;14.59
19061;BMP280;9663;48.996;8.334;2023-11-18T08:10:40;101213.53;;;14.63
19061;BMP280;9663;48.996;8.334;2023-11-18T08:13:11;101215.19;;;14.68
19061;BMP280;9663;48.996;8.334;2023-11-18T08:15:42;101210.94;;;14.69
19061;BMP280;9663;48.996;8.334;2023-11-18T08:18:10;101208.38;;;14.70
19061;BMP280;9663;48.996;8.334;2023-11-18T08:20:36;101185.38;;;14.73
19061;BMP280;9663;48.996;8.334;2023-11-18T08:23:03;101193.88;;;14.75
19061;BMP280;9663;48.996;8.334;2023-11-18T08:25:30;101192.13;;;14.77
19061;BMP280;9663;48.996;8.334;2023-11-18T08:28:00;101186.16;;;14.83
19061;BMP280;9663;48.996;8.334;2023-11-18T08:30:29;101193.75;;;14.89
19061;BMP280;9663;48.996;8.334;2023-11-18T08:32:55;101192.91;;;14.93
19061;BMP280;9663;48.996;8.334;2023-11-18T08:35:21;101188.59;;;14.97
19061;BMP280;9663;48.996;8.334;2023-11-18T08:37:47;101187.72;;;15.00
19061;BMP280;9663;48.996;8.334;2023-11-18T08:40:14;101196.19;;;15.06
19061;BMP280;9663;48.996;8.334;2023-11-18T08:42:48;101179.94;;;15.13
19061;BMP280;9663;48.996;8.334;2023-11-18T08:45:21;101174.78;;;15.25
19061;BMP280;9663;48.996;8.334;2023-11-18T08:48:01;101161.94;;;15.31
19061;BMP280;9663;48.996;8.334;2023-11-18T08:50:27;101161.84;;;15.40
19061;BMP280;9663;48.996;8.334;2023-11-18T08:52:55;101168.56;;;15.50
19061;BMP280;9663;48.996;8.334;2023-11-18T08:55:29;101168.47;;;15.59
19061;BMP280;9663;48.996;8.334;2023-11-18T08:58:05;101170.97;;;15.65
19061;BMP280;9663;48.996;8.334;2023-11-18T09:00:42;101163.22;;;15.71
19061;BMP280;9663;48.996;8.334;2023-11-18T09:03:12;101172.53;;;15.78
19061;BMP280;9663;48.996;8.334;2023-11-18T09:05:58;101169.03;;;15.86
19061;BMP280;9663;48.996;8.334;2023-11-18T09:08:37;101161.22;;;15.95
19061;BMP280;9663;48.996;8.334;2023-11-18T09:11:14;101161.19;;;15.99
19061;BMP280;9663;48.996;8.334;2023-11-18T09:13:44;101154.31;;;16.04
19061;BMP280;9663;48.996;8.334;2023-11-18T09:16:13;101152.50;;;16.12
19061;BMP280;9663;48.996;8.334;2023-11-18T09:18:42;101159.22;;;16.22
19061;BMP280;9663;48.996;8.334;2023-11-18T09:21:11;101149.75;;;16.28
19061;BMP280;9663;48.996;8.334;2023-11-18T09:23:45;101161.59;;;16.37
19061;BMP280;9663;48.996;8.334;2023-11-18T09:26:13;101152.94;;;16.45
19061;BMP280;9663;48.996;8.334;2023-11-18T09:28:40;101151.97;;;16.51
19061;BMP280;9663;48.996;8.334;2023-11-18T09:31:06;101157.06;;;16.54
19061;BMP280;9663;48.996;8.334;2023-11-18T09:33:39;101160.53;;;16.53
19061;BMP280;9663;48.996;8.334;2023-11-18T09:36:08;101162.22;;;16.52
19061;BMP280;9663;48.996;8.334;2023-11-18T09:38:36;101162.22;;;16.52
19061;BMP280;9663;48.996;8.334;2023-11-18T09:41:04;101163.03;;;16.54
19061;BMP280;9663;48.996;8.334;2023-11-18T09:43:36;101159.63;;;16.54
19061;BMP280;9663;48.996;8.334;2023-11-18T09:46:12;101168.22;;;16.51
19061;BMP280;9663;48.996;8.334;2023-11-18T09:48:51;101169.88;;;16.54
19061;BMP280;9663;48.996;8.334;2023-11-18T09:51:23;101180.09;;;16.57
19061;BMP280;9663;48.996;8.334;2023-11-18T09:53:53;101179.22;;;16.59
19061;BMP280;9663;48.996;8.334;2023-11-18T09:56:30;101174.88;;;16.64
19061;BMP280;9663;48.996;8.334;2023-11-18T09:59:31;101175.75;;;16.62
19061;BMP280;9663;48.996;8.334;2023-11-18T10:02:03;101181.66;;;16.65
19061;BMP280;9663;48.996;8.334;2023-11-18T10:04:33;101179.03;;;16.69
19061;BMP280;9663;48.996;8.334;2023-11-18T10:07:02;101175.56;;;16.73
19061;BMP280;9663;48.996;8.334;2023-11-18T10:09:29;101173.81;;;16.75
19061;BMP280;9663;48.996;8.334;2023-11-18T10:12:03;101174.69;;;16.76
19061;BMP280;9663;48.996;8.334;2023-11-18T10:14:35;101177.28;;;16.73
19061;BMP280;9663;48.996;8.334;2023-11-18T10:17:05;101168.00;;;16.66
19061;BMP280;9663;48.996;8.334;2023-11-18T10:19:58;101166.41;;;16.59
19061;BMP280;9663;48.996;8.334;2023-11-18T10:22:38;101166.25;;;16.68
19061;BMP280;9663;48.996;8.334;2023-11-18T10:25:04;101168.75;;;16.74
19061;BMP280;9663;48.996;8.334;2023-11-18T10:27:32;101172.94;;;16.76
19061;BMP280;9663;48.996;8.334;2023-11-18T10:30:04;101174.59;;;16.80
19061;BMP280;9663;48.996;8.334;2023-11-18T10:32:38;101176.25;;;16.84
19061;BMP280;9663;48.996;8.334;2023-11-18T10:35:05;101166.91;;;16.80
19061;BMP280;9663;48.996;8.334;2023-11-18T10:37:32;101174.63;;;16.79
19061;BMP280;9663;48.996;8.334;2023-11-18T10:39:57;101169.53;;;16.77
19061;BMP280;9663;48.996;8.334;2023-11-18T10:42:26;101164.41;;;16.77
19061;BMP280;9663;48.996;8.334;2023-11-18T10:44:59;101167.78;;;16.79
19061;BMP280;9663;48.996;8.334;2023-11-18T10:47:33;101160.13;;;16.78
19061;BMP280;9663;48.996;8.334;2023-11-18T10:50:01;101158.41;;;16.78
19061;BMP280;9663;48.996;8.334;2023-11-18T10:52:27;101150.69;;;16.80
19061;BMP280;9663;48.996;8.334;2023-11-18T10:54:57;101149.88;;;16.78
19061;BMP280;9663;48.996;8.334;2023-11-18T10:57:24;101164.44;;;16.76
19061;BMP280;9663;48.996;8.334;2023-11-18T11:00:00;101160.22;;;16.70
19061;BMP280;9663;48.996;8.334;2023-11-18T11:02:30;101152.59;;;16.69
19061;BMP280;9663;48.996;8.334;2023-11-18T11:05:01;101155.97;;;16.71
19061;BMP280;9663;48.996;8.334;2023-11-18T11:07:29;101149.06;;;16.74
19061;BMP280;9663;48.996;8.334;2023-11-18T11:09:55;101144.78;;;16.75
19061;BMP280;9663;48.996;8.334;2023-11-18T11:12:25;101142.25;;;16.73
19061;BMP280;9663;48.996;8.334;2023-11-18T11:15:08;101138.88;;;16.71
19061;BMP280;9663;48.996;8.334;2023-11-18T11:17:43;101137.94;;;16.75
19061;BMP280;9663;48.996;8.334;2023-11-18T11:20:18;101120.84;;;16.77
19061;BMP280;9663;48.996;8.334;2023-11-18T11:23:21;101106.47;;;16.69
19061;BMP280;9663;48.996;8.334;2023-11-18T11:26:13;101109.81;;;16.74
19061;BMP280;9663;48.996;8.334;2023-11-18T11:31:56;101095.31;;;16.73
19061;BMP280;9663;48.996;8.334;2023-11-18T11:34:29;101083.31;;;16.73
19061;BMP280;9663;48.996;8.334;2023-11-18T11:36:59;101074.75;;;16.77
19061;BMP280;9663;48.996;8.334;2023-11-18T11:39:27;101073.81;;;16.81
19061;BMP280;9663;48.996;8.334;2023-11-18T11:41:55;101069.44;;;16.86
19061;BMP280;9663;48.996;8.334;2023-11-18T11:44:28;101065.97;;;16.90
19061;BMP280;9663;48.996;8.334;2023-11-18T11:46:57;101063.47;;;16.87
19061;BMP280;9663;48.996;8.334;2023-11-18T11:49:27;101060.13;;;16.82
19061;BMP280;9663;48.996;8.334;2023-11-18T11:54:52;101060.22;;;16.76
19061;BMP280;9663;48.996;8.334;2023-11-18T11:57:22;101048.34;;;16.74
19061;BMP280;9663;48.996;8.334;2023-11-18T12:02:22;101044.94;;;16.72
19061;BMP280;9663;48.996;8.334;2023-11-18T12:04:56;101053.44;;;16.74
19061;BMP280;9663;48.996;8.334;2023-11-18T12:07:25;101050.84;;;16.75
19061;BMP280;9663;48.996;8.334;2023-11-18T12:10:01;101038.94;;;17.18
19061;BMP280;9663;48.996;8.334;2023-11-18T12:12:32;101039.47;;;16.90
19061;BMP280;9663;48.996;8.334;2023-11-18T12:15:00;101030.06;;;16.92
19061;BMP280;9663;48.996;8.334;2023-11-18T12:20:44;101029.25;;;16.90
19061;BMP280;9663;48.996;8.334;2023-11-18T12:23:23;101022.31;;;16.95
19061;BMP280;9663;48.996;8.334;2023-11-18T12:25:51;101021.56;;;16.90
19061;BMP280;9663;48.996;8.334;2023-11-18T12:28:43;101018.28;;;16.82
19061;BMP280;9663;48.996;8.334;2023-11-18T12:31:11;101026.69;;;16.88
19061;BMP280;9663;48.996;8.334;2023-11-18T12:39:51;101023.41;;;16.80
19061;BMP280;9663;48.996;8.334;2023-11-18T12:42:58;101009.78;;;16.80
19061;BMP280;9663;48.996;8.334;2023-11-18T12:45:42;100995.91;;;16.91
19061;BMP280;9663;48.996;8.334;2023-11-18T12:48:14;100982.97;;;16.99
19061;BMP280;9663;48.996;8.334;2023-11-18T12:50:43;100981.13;;;17.05
19061;BMP280;9663;48.996;8.334;2023-11-18T12:53:11;100978.41;;;17.12
19061;BMP280;9663;48.996;8.334;2023-11-18T12:55:41;100968.91;;;17.17
19061;BMP280;9663;48.996;8.334;2023-11-18T12:58:08;100976.59;;;17.19
19061;BMP280;9663;48.996;8.334;2023-11-18T13:00:34;100962.03;;;17.21
19061;BMP280;9663;48.996;8.334;2023-11-18T13:03:01;100953.44;;;17.23
19061;BMP280;9663;48.996;8.334;2023-11-18T13:05:26;100939.72;;;17.24
19061;BMP280;9663;48.996;8.334;2023-11-18T13:07:56;100926.81;;;17.29
19061;BMP280;9663;48.996;8.334;2023-11-18T13:10:23;100925.94;;;17.31
19061;BMP280;9663;48.996;8.334;2023-11-18T13:12:50;100923.31;;;17.33
19061;BMP280;9663;48.996;8.334;2023-11-18T13:15:16;100925.88;;;17.33
19061;BMP280;9663;48.996;8.334;2023-11-18T13:18:01;100903.72;;;17.30
19061;BMP280;9663;48.996;8.334;2023-11-18T13:20:28;100904.50;;;17.34
19061;BMP280;9663;48.996;8.334;2023-11-18T13:22:54;100906.16;;;17.36
19061;BMP280;9663;48.996;8.334;2023-11-18T13:25:22;100910.41;;;17.37
19061;BMP280;9663;48.996;8.334;2023-11-18T13:27:49;100914.75;;;17.34
19061;BMP280;9663;48.996;8.334;2023-11-18T13:30:15;100906.25;;;17.32
19061;BMP280;9663;48.996;8.334;2023-11-18T13:32:43;100896.00;;;17.32
19061;BMP280;9663;48.996;8.334;2023-11-18T13:35:10;100889.97;;;17.33
19061;BMP280;9663;48.996;8.334;2023-11-18T13:37:39;100868.59;;;17.34
19061;BMP280;9663;48.996;8.334;2023-11-18T13:40:07;100865.03;;;17.39
19061;BMP280;9663;48.996;8.334;2023-11-18T13:42:34;100865.03;;;17.41
19061;BMP280;9663;48.996;8.334;2023-11-18T13:45:11;100850.41;;;17.44
19061;BMP280;9663;48.996;8.334;2023-11-18T13:47:37;100856.34;;;17.48
19061;BMP280;9663;48.996;8.334;2023-11-18T13:50:10;100853.66;;;17.52
19061;BMP280;9663;48.996;8.334;2023-11-18T13:52:36;100843.97;;;17.97
19061;BMP280;9663;48.996;8.334;2023-11-18T13:55:06;100852.44;;;17.66
19061;BMP280;9663;48.996;8.334;2023-11-18T13:57:32;100854.25;;;17.63
19061;BMP280;9663;48.996;8.334;2023-11-18T13:59:58;100844.81;;;17.63
19061;BMP280;9663;48.996;8.334;2023-11-18T14:02:24;100827.78;;;17.61
19061;BMP280;9663;48.996;8.334;2023-11-18T14:04:50;100830.41;;;17.59
19061;BMP280;9663;48.996;8.334;2023-11-18T14:07:16;100846.69;;;17.57
19061;BMP280;9663;48.996;8.334;2023-11-18T14:09:44;100845.81;;;17.58
19061;BMP280;9663;48.996;8.334;2023-11-18T14:12:12;100838.09;;;17.59
19061;BMP280;9663;48.996;8.334;2023-11-18T14:14:39;100842.25;;;17.63
19061;BMP280;9663;48.996;8.334;2023-11-18T14:17:06;100837.84;;;17.68
19061;BMP280;9663;48.996;8.334;2023-11-18T14:19:33;100839.47;;;17.74
19061;BMP280;9663;48.996;8.334;2023-11-18T14:22:03;100822.22;;;17.79
19061;BMP280;9663;48.996;8.334;2023-11-18T14:24:33;100826.44;;;17.81
19061;BMP280;9663;48.996;8.334;2023-11-18T14:26:59;100822.97;;;17.84
19061;BMP280;9663;48.996;8.334;2023-11-18T14:29:25;100813.50;;;17.86
19061;BMP280;9663;48.996;8.334;2023-11-18T14:31:53;100819.47;;;17.86
19061;BMP280;9663;48.996;8.334;2023-11-18T14:34:20;100827.19;;;17.85
19061;BMP280;9663;48.996;8.334;2023-11-18T14:36:45;100831.50;;;17.84
19061;BMP280;9663;48.996;8.334;2023-11-18T14:39:11;100831.56;;;17.81